createdAt,value
2023-02-06T00:00:30.806Z,0
2023-02-06T00:01:30.948Z,0
2023-02-06T00:02:30.784Z,0
2023-02-06T00:03:30.261Z,0
2023-02-06T00:04:30.511Z,0
2023-02-06T00:05:30.669Z,0
2023-02-06T00:06:30.440Z,0
2023-02-06T00:07:30.362Z,0
2023-02-06T00:08:29.880Z,0
2023-02-06T00:09:30.092Z,0
2023-02-06T00:10:30.067Z,0
2023-02-06T00:11:30.425Z,0
2023-02-06T00:12:30.646Z,0
2023-02-06T00:13:30.523Z,0
2023-02-06T00:14:30.216Z,0
2023-02-06T00:15:29.684Z,0
2023-02-06T00:16:30.358Z,0
2023-02-06T00:17:30.149Z,0
2023-02-06T00:18:30.395Z,0
2023-02-06T00:19:30.423Z,0
2023-02-06T00:20:30.196Z,0
2023-02-06T00:21:29.854Z,0
2023-02-06T00:22:29.825Z,0
2023-02-06T00:23:29.776Z,0
2023-02-06T00:24:30.012Z,0
2023-02-06T00:25:29.998Z,0
2023-02-06T00:26:30.217Z,0
2023-02-06T00:27:29.934Z,0
2023-02-06T00:28:29.238Z,0
2023-02-06T00:29:29.942Z,0
2023-02-06T00:30:30.212Z,0
2023-02-06T00:31:29.650Z,0
2023-02-06T00:32:30.007Z,0
2023-02-06T00:33:30.651Z,0
2023-02-06T00:34:29.804Z,0
2023-02-06T00:35:30.086Z,0
2023-02-06T00:36:29.578Z,0
2023-02-06T00:37:30.018Z,0
2023-02-06T00:38:29.739Z,0
2023-02-06T00:39:29.930Z,0
2023-02-06T00:40:29.710Z,0
2023-02-06T00:41:29.158Z,0
2023-02-06T00:42:29.387Z,0
2023-02-06T00:43:29.848Z,0
2023-02-06T00:44:29.576Z,0
2023-02-06T00:45:29.803Z,0
2023-02-06T00:46:29.851Z,0
2023-02-06T00:47:29.542Z,0
2023-02-06T00:48:29.492Z,0
2023-02-06T00:49:29.715Z,0
2023-02-06T00:50:29.702Z,0
2023-02-06T00:51:29.756Z,0
2023-02-06T00:52:29.750Z,0
2023-02-06T00:53:28.638Z,0
2023-02-06T00:54:29.409Z,0
2023-02-06T00:55:29.347Z,0
2023-02-06T00:56:29.322Z,0
2023-02-06T00:57:29.300Z,0
2023-02-06T00:58:29.301Z,0
2023-02-06T00:59:29.284Z,0
2023-02-06T01:00:28.769Z,0
2023-02-06T01:01:29.216Z,0
2023-02-06T01:02:29.236Z,0
2023-02-06T01:03:29.190Z,0
2023-02-06T01:04:28.891Z,0
2023-02-06T01:05:28.641Z,0
2023-02-06T01:06:29.468Z,0
2023-02-06T01:07:29.387Z,0
2023-02-06T01:08:28.979Z,0
2023-02-06T01:09:29.059Z,0
2023-02-06T01:10:29.318Z,0
2023-02-06T01:11:29.259Z,0
2023-02-06T01:12:29.226Z,0
2023-02-06T01:13:29.111Z,0
2023-02-06T01:14:28.962Z,0
2023-02-06T01:15:28.694Z,0
2023-02-06T01:16:29.063Z,0
2023-02-06T01:17:28.356Z,0
2023-02-06T01:18:28.884Z,0
2023-02-06T01:19:28.592Z,0
2023-02-06T01:20:28.826Z,0
2023-02-06T01:21:28.524Z,0
2023-02-06T01:22:28.775Z,0
2023-02-06T01:23:28.931Z,0
2023-02-06T01:24:29.064Z,0
2023-02-06T01:25:28.980Z,0
2023-02-06T01:26:28.984Z,0
2023-02-06T01:27:28.408Z,0
2023-02-06T01:28:28.387Z,0
2023-02-06T01:29:28.637Z,0
2023-02-06T01:30:28.593Z,0
2023-02-06T01:31:28.748Z,0
2023-02-06T01:32:28.580Z,0
2023-02-06T01:34:00.609Z,0
2023-02-06T01:34:28.510Z,0
2023-02-06T01:35:28.765Z,0
2023-02-06T01:36:28.244Z,0
2023-02-06T01:37:28.456Z,0
2023-02-06T01:38:28.681Z,0
2023-02-06T01:39:28.478Z,0
2023-02-06T01:40:34.119Z,0
2023-02-06T01:41:28.136Z,0
2023-02-06T01:42:28.363Z,0
2023-02-06T01:43:27.556Z,0
2023-02-06T01:44:28.292Z,0
2023-02-06T01:45:28.068Z,0
2023-02-06T01:46:28.492Z,0
2023-02-06T01:47:27.733Z,0
2023-02-06T01:48:28.470Z,0
2023-02-06T01:49:28.192Z,0
2023-02-06T01:50:28.431Z,0
2023-02-06T01:51:27.898Z,0
2023-02-06T01:52:28.119Z,0
2023-02-06T01:53:27.888Z,0
2023-02-06T01:54:27.823Z,0
2023-02-06T01:55:28.147Z,0
2023-02-06T01:56:27.812Z,0
2023-02-06T01:57:28.060Z,0
2023-02-06T01:58:28.048Z,0
2023-02-06T01:59:27.974Z,0
2023-02-06T02:00:27.785Z,0
2023-02-06T02:01:27.929Z,0
2023-02-06T02:02:28.370Z,0
2023-02-06T02:03:28.184Z,0
2023-02-06T02:04:27.611Z,0
2023-02-06T02:05:27.345Z,0
2023-02-06T02:06:27.593Z,0
2023-02-06T02:07:27.575Z,0
2023-02-06T02:08:27.282Z,0
2023-02-06T02:09:27.782Z,0
2023-02-06T02:10:28.026Z,0
2023-02-06T02:11:27.815Z,0
2023-02-06T02:12:28.088Z,0
2023-02-06T02:13:27.835Z,0
2023-02-06T02:14:27.724Z,0
2023-02-06T02:15:27.366Z,0
2023-02-06T02:16:28.068Z,0
2023-02-06T02:17:27.888Z,0
2023-02-06T02:18:27.065Z,0
2023-02-06T02:19:27.557Z,0
2023-02-06T02:20:27.522Z,0
2023-02-06T02:21:27.554Z,0
2023-02-06T02:22:27.756Z,0
2023-02-06T02:23:27.726Z,0
2023-02-06T02:24:27.195Z,0
2023-02-06T02:25:27.721Z,0
2023-02-06T02:26:27.660Z,0
2023-02-06T02:27:27.698Z,0
2023-02-06T02:28:28.030Z,0
2023-02-06T02:29:27.634Z,0
2023-02-06T02:30:27.597Z,0
2023-02-06T02:31:27.225Z,0
2023-02-06T02:32:27.279Z,0
2023-02-06T02:33:26.828Z,0
2023-02-06T02:34:26.970Z,0
2023-02-06T02:35:27.249Z,0
2023-02-06T02:36:27.208Z,0
2023-02-06T02:37:27.155Z,0
2023-02-06T02:38:27.159Z,0
2023-02-06T02:39:27.381Z,0
2023-02-06T02:40:26.857Z,0
2023-02-06T02:41:27.224Z,0
2023-02-06T02:42:27.342Z,0
2023-02-06T02:43:27.122Z,0
2023-02-06T02:44:27.372Z,0
2023-02-06T02:45:27.335Z,0
2023-02-06T02:46:27.021Z,0
2023-02-06T02:47:26.704Z,0
2023-02-06T02:48:27.172Z,0
2023-02-06T02:49:26.915Z,0
2023-02-06T02:50:26.648Z,0
2023-02-06T02:51:26.623Z,0
2023-02-06T02:52:26.351Z,0
2023-02-06T02:53:26.851Z,0
2023-02-06T02:54:26.548Z,0
2023-02-06T02:55:26.784Z,0
2023-02-06T02:56:27.063Z,0
2023-02-06T02:57:26.761Z,0
2023-02-06T02:58:26.493Z,0
2023-02-06T02:59:26.775Z,0
2023-02-06T03:00:26.977Z,0
2023-02-06T03:01:26.464Z,0
2023-02-06T03:02:27.347Z,0
2023-02-06T03:03:26.873Z,0
2023-02-06T03:04:26.585Z,0
2023-02-06T03:05:26.924Z,0
2023-02-06T03:06:26.566Z,0
2023-02-06T03:07:26.543Z,0
2023-02-06T03:08:26.254Z,0
2023-02-06T03:09:26.240Z,0
2023-02-06T03:10:26.482Z,0
2023-02-06T03:11:26.456Z,0
2023-02-06T03:12:26.181Z,0
2023-02-06T03:13:26.404Z,0
2023-02-06T03:14:27.422Z,0
2023-02-06T03:15:28.245Z,0
2023-02-06T03:16:28.099Z,0
2023-02-06T03:17:27.926Z,0
2023-02-06T03:18:27.902Z,0
2023-02-06T03:19:27.857Z,0
2023-02-06T03:20:27.862Z,0
2023-02-06T03:21:27.855Z,0
2023-02-06T03:22:28.090Z,0
2023-02-06T03:23:28.017Z,0
2023-02-06T03:24:27.235Z,0
2023-02-06T03:25:27.470Z,0
2023-02-06T03:26:27.715Z,0
2023-02-06T03:27:27.725Z,0
2023-02-06T03:28:27.969Z,0
2023-02-06T03:29:27.395Z,0
2023-02-06T03:30:27.741Z,0
2023-02-06T03:31:28.082Z,0
2023-02-06T03:32:27.624Z,0
2023-02-06T03:50:13.246Z,0
2023-02-06T03:51:12.785Z,0
2023-02-06T03:52:12.759Z,0
2023-02-06T03:53:12.774Z,0
2023-02-06T03:54:12.468Z,0
2023-02-06T03:55:12.895Z,0
2023-02-06T03:56:12.414Z,0
2023-02-06T03:57:12.709Z,0
2023-02-06T03:58:12.130Z,0
2023-02-06T03:59:12.609Z,0
2023-02-06T04:00:12.332Z,0
2023-02-06T04:01:12.837Z,0
2023-02-06T04:02:12.700Z,0
2023-02-06T04:03:12.527Z,0
2023-02-06T04:04:12.752Z,0
2023-02-06T04:05:12.793Z,0
2023-02-06T04:06:12.864Z,0
2023-02-06T04:07:12.431Z,0
2023-02-06T04:08:12.404Z,0
2023-02-06T04:09:12.125Z,0
2023-02-06T04:10:12.372Z,0
2023-02-06T04:11:12.616Z,0
2023-02-06T04:12:12.339Z,0
2023-02-06T04:13:12.053Z,0
2023-02-06T04:14:12.280Z,0
2023-02-06T04:15:12.257Z,0
2023-02-06T04:16:12.114Z,0
2023-02-06T04:17:12.517Z,0
2023-02-06T04:18:14.102Z,0
2023-02-06T04:19:12.186Z,0
2023-02-06T04:20:12.153Z,0
2023-02-06T04:21:12.444Z,0
2023-02-06T04:22:12.508Z,0
2023-02-06T04:23:11.850Z,0
2023-02-06T04:24:12.069Z,0
2023-02-06T04:25:11.544Z,0
2023-02-06T04:26:12.295Z,0
2023-02-06T04:27:11.738Z,0
2023-02-06T04:28:12.769Z,0
2023-02-06T04:29:11.989Z,0
2023-02-06T04:30:13.121Z,0
2023-02-06T04:31:13.958Z,0
2023-02-06T04:32:12.552Z,0
2023-02-06T04:33:13.062Z,0
2023-02-06T04:34:12.776Z,0
2023-02-06T04:35:12.772Z,0
2023-02-06T04:36:12.735Z,0
2023-02-06T04:37:12.695Z,0
2023-02-06T04:38:13.062Z,0
2023-02-06T04:39:12.153Z,0
2023-02-06T04:40:12.507Z,0
2023-02-06T04:41:12.373Z,0
2023-02-06T04:42:12.581Z,0
2023-02-06T04:43:12.844Z,0
2023-02-06T04:44:12.823Z,0
2023-02-06T04:45:12.814Z,0
2023-02-06T04:46:12.562Z,0
2023-02-06T04:47:12.522Z,0
2023-02-06T04:48:12.737Z,0
2023-02-06T04:49:12.188Z,0
2023-02-06T04:50:12.423Z,0
2023-02-06T04:51:12.194Z,0
2023-02-06T04:52:12.648Z,0
2023-02-06T04:53:12.605Z,0
2023-02-06T04:54:12.713Z,0
2023-02-06T04:55:11.825Z,0
2023-02-06T04:56:12.585Z,0
2023-02-06T04:57:12.024Z,0
2023-02-06T04:58:12.252Z,0
2023-02-06T04:59:12.002Z,0
2023-02-06T05:00:12.540Z,0
2023-02-06T05:01:12.283Z,0
2023-02-06T05:02:12.074Z,0
2023-02-06T05:03:11.640Z,0
2023-02-06T05:04:12.384Z,0
2023-02-06T05:05:12.377Z,0
2023-02-06T05:06:12.102Z,0
2023-02-06T05:07:15.050Z,0
2023-02-06T05:08:11.523Z,0
2023-02-06T05:09:11.777Z,0
2023-02-06T05:10:12.801Z,0
2023-02-06T05:11:11.972Z,0
2023-02-06T05:12:14.473Z,0
2023-02-06T05:13:12.836Z,0
2023-02-06T05:14:13.686Z,0
2023-02-06T05:15:13.388Z,0
2023-02-06T05:16:13.554Z,0
2023-02-06T05:17:13.314Z,0
2023-02-06T05:18:13.318Z,0
2023-02-06T05:19:13.544Z,0
2023-02-06T05:20:12.994Z,0
2023-02-06T05:21:13.219Z,0
2023-02-06T05:22:12.963Z,0
2023-02-06T05:23:13.589Z,0
2023-02-06T05:24:12.909Z,0
2023-02-06T05:25:13.130Z,0
2023-02-06T05:26:13.780Z,0
2023-02-06T05:27:13.118Z,0
2023-02-06T05:28:14.400Z,0
2023-02-06T05:29:13.079Z,0
2023-02-06T05:30:13.325Z,0
2023-02-06T05:31:13.514Z,0
2023-02-06T05:32:12.508Z,0
2023-02-06T05:33:12.976Z,0
2023-02-06T05:34:12.950Z,0
2023-02-06T05:35:12.690Z,0
2023-02-06T05:36:12.922Z,0
2023-02-06T05:37:12.889Z,0
2023-02-06T05:38:13.144Z,0
2023-02-06T05:39:13.095Z,0
2023-02-06T05:40:12.341Z,0
2023-02-06T05:41:13.078Z,0
2023-02-06T05:42:13.776Z,0
2023-02-06T05:43:12.792Z,0
2023-02-06T05:44:12.494Z,0
2023-02-06T05:45:12.766Z,0
2023-02-06T05:46:12.460Z,0
2023-02-06T05:47:12.425Z,0
2023-02-06T05:48:12.672Z,0
2023-02-06T05:49:12.382Z,0
2023-02-06T05:50:12.881Z,0
2023-02-06T05:51:12.594Z,0
2023-02-06T05:52:12.820Z,0
2023-02-06T05:53:12.564Z,0
2023-02-06T05:54:12.801Z,0
2023-02-06T05:55:12.278Z,0
2023-02-06T05:56:12.511Z,0
2023-02-06T05:57:12.241Z,0
2023-02-06T05:58:15.813Z,0
2023-02-06T05:59:12.456Z,0
2023-02-06T06:00:12.673Z,0
2023-02-06T06:01:12.397Z,0
2023-02-06T06:02:12.626Z,0
2023-02-06T06:03:11.856Z,0
2023-02-06T06:04:12.757Z,0
2023-02-06T06:05:12.490Z,0
2023-02-06T06:06:12.265Z,0
2023-02-06T06:07:12.016Z,0
2023-02-06T06:08:12.006Z,0
2023-02-06T06:09:12.245Z,0
2023-02-06T06:10:12.444Z,0
2023-02-06T06:11:11.957Z,0
2023-02-06T06:12:11.897Z,0
2023-02-06T06:13:12.154Z,0
2023-02-06T06:14:12.505Z,0
2023-02-06T06:15:11.867Z,0
2023-02-06T06:16:12.449Z,0
2023-02-06T06:17:11.541Z,0
2023-02-06T06:18:12.276Z,0
2023-02-06T06:19:12.291Z,0
2023-02-06T06:20:11.732Z,0
2023-02-06T06:21:12.330Z,0
2023-02-06T06:22:12.306Z,0
2023-02-06T06:23:12.030Z,0
2023-02-06T06:24:12.292Z,0
2023-02-06T06:25:12.268Z,0
2023-02-06T06:26:12.215Z,0
2023-02-06T06:27:12.443Z,0
2023-02-06T06:28:12.112Z,0
2023-02-06T06:29:12.176Z,0
2023-02-06T06:30:12.691Z,0
2023-02-06T06:31:12.891Z,0
2023-02-06T06:32:11.595Z,0
2023-02-06T06:33:12.073Z,0
2023-02-06T06:34:12.055Z,0
2023-02-06T06:35:12.057Z,0
2023-02-06T06:36:14.276Z,0
2023-02-06T06:37:11.482Z,0
2023-02-06T06:38:11.979Z,0
2023-02-06T06:39:11.729Z,0
2023-02-06T06:40:11.732Z,0
2023-02-06T06:41:12.204Z,0
2023-02-06T06:42:11.114Z,0
2023-02-06T06:43:11.876Z,5
2023-02-06T06:44:11.855Z,5
2023-02-06T06:45:12.110Z,5
2023-02-06T06:46:12.517Z,5
2023-02-06T06:47:12.051Z,5
2023-02-06T06:48:11.764Z,5
2023-02-06T06:49:11.487Z,5
2023-02-06T06:50:11.740Z,5
2023-02-06T06:51:11.452Z,5
2023-02-06T06:52:28.692Z,5
2023-02-06T06:53:11.658Z,10
2023-02-06T06:54:11.646Z,10
2023-02-06T06:55:11.601Z,10
2023-02-06T06:56:11.351Z,10
2023-02-06T06:57:11.814Z,10
2023-02-06T06:58:11.809Z,10
2023-02-06T06:59:11.778Z,10
2023-02-06T07:00:11.250Z,10
2023-02-06T07:01:11.883Z,10
2023-02-06T07:02:12.013Z,10
2023-02-06T07:03:12.099Z,10
2023-02-06T07:04:11.434Z,10
2023-02-06T07:05:11.650Z,10
2023-02-06T07:06:11.182Z,10
2023-02-06T07:07:11.490Z,10
2023-02-06T07:08:11.350Z,15
2023-02-06T07:09:11.330Z,15
2023-02-06T07:10:11.354Z,15
2023-02-06T07:11:11.285Z,15
2023-02-06T07:12:11.256Z,20
2023-02-06T07:13:11.233Z,20
2023-02-06T07:14:10.957Z,20
2023-02-06T07:15:11.194Z,20
2023-02-06T07:16:11.039Z,20
2023-02-06T07:17:11.524Z,20
2023-02-06T07:18:14.128Z,20
2023-02-06T07:19:10.847Z,20
2023-02-06T07:20:11.380Z,20
2023-02-06T07:21:11.108Z,20
2023-02-06T07:22:11.082Z,20
2023-02-06T07:23:11.025Z,20
2023-02-06T07:24:11.020Z,20
2023-02-06T07:25:12.006Z,20
2023-02-06T07:26:11.993Z,20
2023-02-06T07:27:11.714Z,20
2023-02-06T07:28:12.049Z,20
2023-02-06T07:29:11.962Z,20
2023-02-06T07:30:13.543Z,20
2023-02-06T07:31:12.195Z,20
2023-02-06T07:32:11.886Z,20
2023-02-06T07:33:12.107Z,20
2023-02-06T07:34:12.465Z,20
2023-02-06T07:35:12.009Z,20
2023-02-06T07:36:13.487Z,20
2023-02-06T07:37:11.804Z,15
2023-02-06T07:38:11.486Z,15
2023-02-06T07:39:11.968Z,15
2023-02-06T07:40:11.721Z,15
2023-02-06T07:41:13.580Z,15
2023-02-06T07:42:11.146Z,20
2023-02-06T07:43:11.894Z,20
2023-02-06T07:44:11.365Z,20
2023-02-06T07:45:11.910Z,20
2023-02-06T07:46:12.112Z,20
2023-02-06T07:47:11.291Z,20
2023-02-06T07:48:11.828Z,20
2023-02-06T07:49:11.509Z,25
2023-02-06T07:50:12.014Z,25
2023-02-06T07:51:11.523Z,25
2023-02-06T07:52:11.735Z,25
2023-02-06T07:53:11.443Z,25
2023-02-06T07:54:11.680Z,25
2023-02-06T07:55:11.645Z,25
2023-02-06T07:56:11.360Z,20
2023-02-06T07:57:11.128Z,25
2023-02-06T07:58:11.377Z,25
2023-02-06T07:59:11.300Z,25
2023-02-06T08:00:11.041Z,25
2023-02-06T08:01:11.575Z,25
2023-02-06T08:02:11.529Z,25
2023-02-06T08:03:11.462Z,25
2023-02-06T08:04:11.132Z,25
2023-02-06T08:05:11.469Z,30
2023-02-06T08:06:11.749Z,30
2023-02-06T08:07:11.412Z,30
2023-02-06T08:08:11.395Z,30
2023-02-06T08:09:11.096Z,30
2023-02-06T08:10:10.858Z,30
2023-02-06T08:11:11.064Z,35
2023-02-06T08:12:13.344Z,35
2023-02-06T08:13:11.014Z,35
2023-02-06T08:14:11.007Z,35
2023-02-06T08:15:10.968Z,30
2023-02-06T08:16:11.197Z,30
2023-02-06T08:17:11.224Z,30
2023-02-06T08:18:11.159Z,30
2023-02-06T08:19:11.188Z,30
2023-02-06T08:20:11.197Z,30
2023-02-06T08:21:10.905Z,30
2023-02-06T08:22:11.283Z,30
2023-02-06T08:23:11.057Z,30
2023-02-06T08:24:10.525Z,30
2023-02-06T08:25:11.067Z,30
2023-02-06T08:26:10.501Z,30
2023-02-06T08:27:10.988Z,25
2023-02-06T08:28:11.048Z,25
2023-02-06T08:29:10.675Z,25
2023-02-06T08:30:10.953Z,30
2023-02-06T08:31:15.058Z,30
2023-02-06T08:32:10.702Z,30
2023-02-06T08:33:10.858Z,30
2023-02-06T08:34:10.343Z,35
2023-02-06T08:35:10.856Z,35
2023-02-06T08:36:10.536Z,35
2023-02-06T08:37:10.271Z,40
2023-02-06T08:38:10.966Z,40
2023-02-06T08:39:10.238Z,40
2023-02-06T08:40:10.197Z,45
2023-02-06T08:41:10.727Z,50
2023-02-06T08:42:10.411Z,50
2023-02-06T08:43:10.385Z,50
2023-02-06T08:44:10.144Z,50
2023-02-06T08:45:10.349Z,50
2023-02-06T08:46:10.604Z,50
2023-02-06T08:47:18.739Z,55
2023-02-06T08:48:10.539Z,55
2023-02-06T08:49:09.792Z,50
2023-02-06T08:50:12.712Z,45
2023-02-06T08:51:10.249Z,45
2023-02-06T08:52:10.256Z,45
2023-02-06T08:53:10.295Z,45
2023-02-06T08:54:10.628Z,50
2023-02-06T08:55:10.146Z,50
2023-02-06T08:56:10.429Z,45
2023-02-06T08:57:10.116Z,45
2023-02-06T08:58:10.399Z,45
2023-02-06T08:59:10.125Z,45
2023-02-06T09:00:09.797Z,40
2023-02-06T09:01:09.761Z,45
2023-02-06T09:02:11.727Z,45
2023-02-06T09:03:10.272Z,45
2023-02-06T09:04:09.733Z,45
2023-02-06T09:05:09.675Z,45
2023-02-06T09:06:18.594Z,50
2023-02-06T09:07:10.159Z,50
2023-02-06T09:08:10.179Z,50
2023-02-06T09:09:09.594Z,45
2023-02-06T09:10:27.318Z,50
2023-02-06T09:11:09.840Z,50
2023-02-06T09:12:09.840Z,50
2023-02-06T09:13:09.914Z,55
2023-02-06T09:14:10.036Z,50
2023-02-06T09:15:09.998Z,50
2023-02-06T09:16:09.775Z,50
2023-02-06T09:17:09.749Z,50
2023-02-06T09:18:09.416Z,45
2023-02-06T09:19:09.672Z,50
2023-02-06T09:20:09.902Z,50
2023-02-06T09:21:09.641Z,45
2023-02-06T09:22:11.912Z,45
2023-02-06T09:23:09.312Z,45
2023-02-06T09:24:09.116Z,45
2023-02-06T09:25:09.553Z,50
2023-02-06T09:26:09.923Z,50
2023-02-06T09:27:10.749Z,45
2023-02-06T09:28:09.664Z,45
2023-02-06T09:29:09.211Z,45
2023-02-06T09:30:09.451Z,50
2023-02-06T09:31:10.431Z,50
2023-02-06T09:32:09.672Z,50
2023-02-06T09:33:09.611Z,50
2023-02-06T09:34:09.607Z,45
2023-02-06T09:35:09.075Z,45
2023-02-06T09:36:09.407Z,45
2023-02-06T09:37:09.677Z,45
2023-02-06T09:38:09.521Z,50
2023-02-06T09:39:09.240Z,55
2023-02-06T09:40:09.232Z,60
2023-02-06T09:41:08.937Z,60
2023-02-06T09:42:09.565Z,60
2023-02-06T09:43:09.402Z,55
2023-02-06T09:44:09.458Z,55
2023-02-06T09:45:08.634Z,55
2023-02-06T09:46:09.331Z,55
2023-02-06T09:47:09.349Z,60
2023-02-06T09:48:08.796Z,60
2023-02-06T09:49:08.778Z,60
2023-02-06T09:50:09.276Z,65
2023-02-06T09:51:09.244Z,65
2023-02-06T09:52:09.238Z,65
2023-02-06T09:53:09.212Z,65
2023-02-06T09:54:08.937Z,65
2023-02-06T09:55:08.998Z,70
2023-02-06T09:56:08.912Z,65
2023-02-06T09:57:09.130Z,65
2023-02-06T09:58:09.220Z,70
2023-02-06T09:59:08.585Z,70
2023-02-06T10:00:08.580Z,70
2023-02-06T10:01:08.319Z,70
2023-02-06T10:02:08.848Z,65
2023-02-06T10:03:08.541Z,70
2023-02-06T10:04:08.535Z,75
2023-02-06T10:05:08.597Z,75
2023-02-06T10:06:08.707Z,75
2023-02-06T10:07:08.643Z,75
2023-02-06T10:08:08.763Z,80
2023-02-06T10:09:08.623Z,80
2023-02-06T10:10:08.422Z,85
2023-02-06T10:11:08.616Z,80
2023-02-06T10:12:08.587Z,85
2023-02-06T10:13:08.285Z,90
2023-02-06T10:14:08.938Z,95
2023-02-06T10:15:08.747Z,95
2023-02-06T10:16:10.959Z,95
2023-02-06T10:17:08.716Z,95
2023-02-06T10:18:08.005Z,95
2023-02-06T10:19:07.939Z,95
2023-02-06T10:20:08.439Z,95
2023-02-06T10:21:08.639Z,80
2023-02-06T10:22:08.672Z,75
2023-02-06T10:23:08.344Z,75
2023-02-06T10:24:08.588Z,80
2023-02-06T10:25:08.304Z,85
2023-02-06T10:26:08.301Z,85
2023-02-06T10:27:08.301Z,75
2023-02-06T10:28:08.911Z,70
2023-02-06T10:29:08.268Z,75
2023-02-06T10:30:08.918Z,70
2023-02-06T10:31:08.751Z,70
2023-02-06T10:32:08.046Z,75
2023-02-06T10:33:23.995Z,70
2023-02-06T10:34:08.107Z,65
2023-02-06T10:35:07.834Z,65
2023-02-06T10:36:08.351Z,60
2023-02-06T10:37:07.810Z,60
2023-02-06T10:38:08.011Z,60
2023-02-06T10:39:07.818Z,60
2023-02-06T10:40:08.003Z,65
2023-02-06T10:41:08.024Z,70
2023-02-06T10:42:08.034Z,75
2023-02-06T10:43:07.929Z,75
2023-02-06T10:44:07.775Z,75
2023-02-06T10:45:27.963Z,70
2023-02-06T10:46:08.225Z,70
2023-02-06T10:47:08.193Z,70
2023-02-06T10:48:08.108Z,70
2023-02-06T10:49:08.114Z,70
2023-02-06T10:50:08.053Z,70
2023-02-06T10:51:08.100Z,70
2023-02-06T10:52:08.032Z,75
2023-02-06T10:53:07.762Z,75
2023-02-06T10:54:07.970Z,75
2023-02-06T10:55:07.455Z,75
2023-02-06T10:56:07.686Z,70
2023-02-06T10:57:07.385Z,75
2023-02-06T10:58:07.773Z,75
2023-02-06T10:59:07.640Z,75
2023-02-06T11:00:07.444Z,75
2023-02-06T11:01:27.603Z,75
2023-02-06T11:02:10.257Z,75
2023-02-06T11:03:16.566Z,75
2023-02-06T11:04:07.272Z,75
2023-02-06T11:05:07.693Z,70
2023-02-06T11:06:07.734Z,65
2023-02-06T11:07:07.473Z,60
2023-02-06T11:08:07.706Z,60
2023-02-06T11:09:07.723Z,55
2023-02-06T11:10:07.515Z,55
2023-02-06T11:11:07.640Z,55
2023-02-06T11:12:07.358Z,60
2023-02-06T11:13:07.346Z,65
2023-02-06T11:14:07.064Z,70
2023-02-06T11:15:07.046Z,75
2023-02-06T11:16:07.882Z,75
2023-02-06T11:17:07.660Z,75
2023-02-06T11:18:07.018Z,75
2023-02-06T11:19:07.544Z,75
2023-02-06T11:20:06.749Z,75
2023-02-06T11:21:07.527Z,75
2023-02-06T11:22:06.705Z,70
2023-02-06T11:23:07.175Z,65
2023-02-06T11:24:07.408Z,65
2023-02-06T11:25:07.092Z,60
2023-02-06T11:26:07.089Z,55
2023-02-06T11:27:07.355Z,55
2023-02-06T11:28:07.257Z,55
2023-02-06T11:29:07.000Z,55
2023-02-06T11:30:06.974Z,55
2023-02-06T11:31:07.385Z,55
2023-02-06T11:32:07.009Z,55
2023-02-06T11:33:14.385Z,50
2023-02-06T11:34:07.199Z,55
2023-02-06T11:35:06.882Z,50
2023-02-06T11:36:06.721Z,55
2023-02-06T11:37:06.950Z,50
2023-02-06T11:38:08.500Z,50
2023-02-06T11:39:07.085Z,55
2023-02-06T11:40:07.036Z,55
2023-02-06T11:41:06.772Z,55
2023-02-06T11:42:07.024Z,50
2023-02-06T11:43:07.191Z,45
2023-02-06T11:44:06.773Z,45
2023-02-06T11:45:06.421Z,50
2023-02-06T11:46:07.163Z,55
2023-02-06T11:47:06.609Z,55
2023-02-06T11:48:06.882Z,50
2023-02-06T11:49:07.017Z,50
2023-02-06T11:50:06.616Z,50
2023-02-06T11:51:06.597Z,45
2023-02-06T11:52:06.261Z,45
2023-02-06T11:53:06.522Z,40
2023-02-06T11:54:06.502Z,45
2023-02-06T11:55:06.715Z,45
2023-02-06T11:56:06.691Z,45
2023-02-06T11:57:06.453Z,50
2023-02-06T11:58:06.471Z,45
2023-02-06T11:59:09.231Z,50
2023-02-06T12:00:06.424Z,50
2023-02-06T12:01:06.361Z,50
2023-02-06T12:02:06.253Z,50
2023-02-06T12:03:07.007Z,50
2023-02-06T12:04:06.581Z,50
2023-02-06T12:05:06.471Z,55
2023-02-06T12:06:09.969Z,50
2023-02-06T12:07:05.972Z,55
2023-02-06T12:08:05.940Z,50
2023-02-06T12:09:05.781Z,50
2023-02-06T12:10:05.898Z,50
2023-02-06T12:11:06.156Z,55
2023-02-06T12:12:05.899Z,55
2023-02-06T12:13:05.838Z,50
2023-02-06T12:14:06.073Z,50
2023-02-06T12:15:47.447Z,45
2023-02-06T12:16:06.026Z,45
2023-02-06T12:17:06.175Z,45
2023-02-06T12:18:06.309Z,40
2023-02-06T12:19:06.019Z,45
2023-02-06T12:20:05.992Z,45
2023-02-06T12:21:06.434Z,45
2023-02-06T12:22:06.214Z,50
2023-02-06T12:23:06.185Z,55
2023-02-06T12:24:05.947Z,55
2023-02-06T12:25:05.898Z,60
2023-02-06T12:26:05.619Z,65
2023-02-06T12:27:05.560Z,70
2023-02-06T12:28:05.693Z,70
2023-02-06T12:29:06.081Z,60
2023-02-06T12:30:06.018Z,70
2023-02-06T12:31:06.201Z,70
2023-02-06T12:32:06.280Z,65
2023-02-06T12:33:05.951Z,70
2023-02-06T12:34:05.677Z,70
2023-02-06T12:35:05.929Z,75
2023-02-06T12:36:05.886Z,70
2023-02-06T12:37:06.004Z,75
2023-02-06T12:38:05.885Z,70
2023-02-06T12:39:05.849Z,70
2023-02-06T12:40:05.575Z,75
2023-02-06T12:41:05.542Z,80
2023-02-06T12:42:05.262Z,80
2023-02-06T12:43:05.590Z,80
2023-02-06T12:44:05.488Z,75
2023-02-06T12:45:05.679Z,85
2023-02-06T12:46:05.865Z,90
2023-02-06T12:47:04.872Z,100
2023-02-06T12:48:05.629Z,90
2023-02-06T12:49:05.769Z,90
2023-02-06T12:50:05.341Z,95
2023-02-06T12:51:05.056Z,95
2023-02-06T12:52:05.285Z,90
2023-02-06T12:53:05.644Z,90
2023-02-06T12:54:05.312Z,100
2023-02-06T12:55:05.105Z,105
2023-02-06T12:56:07.644Z,105
2023-02-06T12:57:05.430Z,115
2023-02-06T12:58:05.160Z,135
2023-02-06T12:59:05.851Z,140
2023-02-06T13:00:08.097Z,145
2023-02-06T13:01:05.587Z,140
2023-02-06T13:02:05.652Z,130
2023-02-06T13:03:05.743Z,140
2023-02-06T13:04:05.335Z,140
2023-02-06T13:05:04.529Z,130
2023-02-06T13:06:05.004Z,135
2023-02-06T13:07:04.470Z,120
2023-02-06T13:08:05.207Z,105
2023-02-06T13:09:05.293Z,100
2023-02-06T13:10:04.479Z,95
2023-02-06T13:11:05.170Z,85
2023-02-06T13:12:05.132Z,85
2023-02-06T13:13:04.661Z,90
2023-02-06T13:14:04.326Z,100
2023-02-06T13:15:04.840Z,95
2023-02-06T13:16:04.622Z,95
2023-02-06T13:17:05.073Z,95
2023-02-06T13:18:04.500Z,85
2023-02-06T13:19:05.025Z,85
2023-02-06T13:20:04.488Z,85
2023-02-06T13:21:05.082Z,95
2023-02-06T13:22:05.595Z,100
2023-02-06T13:23:05.553Z,100
2023-02-06T13:24:05.541Z,120
2023-02-06T13:25:05.409Z,115
2023-02-06T13:26:05.317Z,120
2023-02-06T13:27:05.490Z,120
2023-02-06T13:28:05.291Z,120
2023-02-06T13:29:05.177Z,125
2023-02-06T13:30:05.314Z,125
2023-02-06T13:31:05.751Z,120
2023-02-06T13:32:06.797Z,125
2023-02-06T13:33:05.384Z,130
2023-02-06T13:34:05.376Z,125
2023-02-06T13:35:05.053Z,120
2023-02-06T13:36:05.045Z,115
2023-02-06T13:37:04.993Z,115
2023-02-06T13:38:04.994Z,100
2023-02-06T13:39:04.771Z,85
2023-02-06T13:40:05.209Z,85
2023-02-06T13:41:05.029Z,80
2023-02-06T13:42:04.998Z,90
2023-02-06T13:43:04.656Z,90
2023-02-06T13:44:05.175Z,80
2023-02-06T13:45:04.851Z,80
2023-02-06T13:46:04.833Z,80
2023-02-06T13:47:04.842Z,80
2023-02-06T13:48:04.771Z,80
2023-02-06T13:49:04.265Z,75
2023-02-06T13:50:04.502Z,70
2023-02-06T13:51:04.975Z,70
2023-02-06T13:52:04.979Z,75
2023-02-06T13:53:04.426Z,70
2023-02-06T13:54:04.472Z,70
2023-02-06T13:55:04.668Z,80
2023-02-06T13:56:04.989Z,75
2023-02-06T13:57:04.805Z,75
2023-02-06T13:58:04.895Z,75
2023-02-06T13:59:04.343Z,75
2023-02-06T14:00:04.582Z,75
2023-02-06T14:01:04.015Z,75
2023-02-06T14:02:04.783Z,75
2023-02-06T14:03:05.128Z,75
2023-02-06T14:04:04.299Z,70
2023-02-06T14:05:04.694Z,75
2023-02-06T14:06:04.419Z,70
2023-02-06T14:07:04.436Z,65
2023-02-06T14:08:04.092Z,65
2023-02-06T14:09:04.113Z,70
2023-02-06T14:10:04.083Z,65
2023-02-06T14:11:04.144Z,65
2023-02-06T14:12:04.456Z,65
2023-02-06T14:13:04.742Z,65
2023-02-06T14:14:04.628Z,65
2023-02-06T14:15:04.562Z,70
2023-02-06T14:16:04.333Z,75
2023-02-06T14:17:03.681Z,70
2023-02-06T14:18:05.901Z,70
2023-02-06T14:19:04.161Z,70
2023-02-06T14:20:04.377Z,75
2023-02-06T14:21:03.826Z,75
2023-02-06T14:22:04.072Z,75
2023-02-06T14:23:04.385Z,75
2023-02-06T14:24:04.101Z,75
2023-02-06T14:25:04.076Z,75
2023-02-06T14:26:04.304Z,70
2023-02-06T14:27:04.080Z,70
2023-02-06T14:28:04.339Z,70
2023-02-06T14:29:04.311Z,70
2023-02-06T14:30:03.963Z,70
2023-02-06T14:31:04.797Z,65
2023-02-06T14:32:04.152Z,60
2023-02-06T14:33:04.147Z,55
2023-02-06T14:34:04.124Z,55
2023-02-06T14:35:03.562Z,50
2023-02-06T14:36:04.029Z,55
2023-02-06T14:37:03.756Z,50
2023-02-06T14:38:03.807Z,50
2023-02-06T14:39:06.060Z,55
2023-02-06T14:40:09.417Z,55
2023-02-06T14:41:03.448Z,55
2023-02-06T14:42:03.981Z,55
2023-02-06T14:43:03.662Z,60
2023-02-06T14:44:03.366Z,65
2023-02-06T14:45:04.522Z,65